createdAt,value
2017-12-19T00:00:10.848Z,83.40
2017-12-19T00:02:38.448Z,83.60
2017-12-19T00:05:06.024Z,83.60
2017-12-19T00:07:33.658Z,83.50
2017-12-19T00:10:02.014Z,83.60
2017-12-19T00:12:29.613Z,83.60
2017-12-19T00:14:57.221Z,83.90
2017-12-19T00:17:24.814Z,83.70
2017-12-19T00:19:53.182Z,83.70
2017-12-19T00:22:32.582Z,83.70
2017-12-19T00:25:00.179Z,83.30
2017-12-19T00:27:27.739Z,83.30
2017-12-19T00:29:55.329Z,83.30
2017-12-19T00:32:22.955Z,83.30
2017-12-19T00:34:50.542Z,83.00
2017-12-19T00:37:18.900Z,83.70
2017-12-19T00:39:46.505Z,83.60
2017-12-19T00:42:14.117Z,83.60
2017-12-19T00:44:41.736Z,84.10
2017-12-19T00:47:09.367Z,84.10
2017-12-19T00:49:36.934Z,83.70
2017-12-19T00:52:04.513Z,84.20
2017-12-19T00:54:32.139Z,84.20
2017-12-19T00:57:00.502Z,83.80
2017-12-19T00:59:28.068Z,83.80
2017-12-19T01:01:55.674Z,83.90
2017-12-19T01:04:23.260Z,83.40
2017-12-19T01:06:50.866Z,82.90
2017-12-19T01:09:19.253Z,83.20
2017-12-19T01:11:46.821Z,83.20
2017-12-19T01:14:14.390Z,83.00
2017-12-19T01:16:42.018Z,83.70
2017-12-19T01:19:10.372Z,83.80
2017-12-19T01:21:37.953Z,83.70
2017-12-19T01:24:05.575Z,83.60
2017-12-19T01:26:33.177Z,83.30
2017-12-19T01:29:00.781Z,83.10
2017-12-19T01:31:28.349Z,83.60
2017-12-19T01:33:55.964Z,83.30
2017-12-19T01:36:23.537Z,83.20
2017-12-19T01:38:51.150Z,83.70
2017-12-19T01:41:18.735Z,83.40
2017-12-19T01:43:46.351Z,83.10
2017-12-19T01:46:13.927Z,83.00
2017-12-19T01:48:41.538Z,83.40
2017-12-19T01:51:09.867Z,83.30
2017-12-19T01:53:37.442Z,83.20
2017-12-19T01:56:05.070Z,83.50
2017-12-19T01:58:32.680Z,83.80
2017-12-19T02:01:00.246Z,83.80
2017-12-19T02:03:27.811Z,83.70
2017-12-19T02:05:55.425Z,83.80
2017-12-19T02:08:23.011Z,84.20
2017-12-19T02:10:50.586Z,83.90
2017-12-19T02:13:18.212Z,83.30
2017-12-19T02:15:45.805Z,83.50
2017-12-19T02:18:13.385Z,83.90
2017-12-19T02:20:41.781Z,84.10
2017-12-19T02:23:09.395Z,84.10
2017-12-19T02:25:36.963Z,83.90
2017-12-19T02:28:04.525Z,83.50
2017-12-19T02:30:32.136Z,83.80
2017-12-19T02:32:59.707Z,83.40
2017-12-19T02:35:27.326Z,83.30
2017-12-19T02:37:54.903Z,83.60
2017-12-19T02:40:23.283Z,83.80
2017-12-19T02:43:03.495Z,84.00
2017-12-19T02:45:31.107Z,84.00
2017-12-19T02:47:58.706Z,83.10
2017-12-19T02:50:26.314Z,83.60
2017-12-19T02:52:54.654Z,84.60
2017-12-19T02:55:22.216Z,83.90
2017-12-19T02:57:49.837Z,84.10
2017-12-19T03:00:17.412Z,83.50
2017-12-19T03:02:44.979Z,83.20
2017-12-19T03:05:12.584Z,83.20
2017-12-19T03:07:40.195Z,83.40
2017-12-19T03:10:08.575Z,83.40
2017-12-19T03:12:36.189Z,83.40
2017-12-19T03:15:03.754Z,83.50
2017-12-19T03:17:32.122Z,83.60
2017-12-19T03:19:59.720Z,83.60
2017-12-19T03:22:27.302Z,83.60
2017-12-19T03:24:54.877Z,83.80
2017-12-19T03:27:22.474Z,83.40
2017-12-19T03:29:50.834Z,84.00
2017-12-19T03:32:18.405Z,83.80
2017-12-19T03:34:46.002Z,83.00
2017-12-19T03:37:13.594Z,83.40
2017-12-19T03:39:41.207Z,83.50
2017-12-19T03:42:09.550Z,83.50
2017-12-19T03:44:37.166Z,83.50
2017-12-19T03:47:04.747Z,83.60
2017-12-19T03:49:33.130Z,84.00
2017-12-19T03:52:01.502Z,84.00
2017-12-19T03:54:29.110Z,83.90
2017-12-19T03:56:56.698Z,84.50
2017-12-19T03:59:24.305Z,83.80
2017-12-19T04:01:54.304Z,83.60
2017-12-19T04:04:21.913Z,83.30
2017-12-19T04:06:49.475Z,83.40
2017-12-19T04:09:17.868Z,83.60
2017-12-19T04:11:47.490Z,83.80
2017-12-19T04:14:15.446Z,83.70
2017-12-19T04:16:43.860Z,83.80
2017-12-19T04:19:11.482Z,83.70
2017-12-19T04:21:39.849Z,83.50
2017-12-19T04:24:07.452Z,83.40
2017-12-19T04:26:35.055Z,83.70
2017-12-19T04:29:02.614Z,83.80
2017-12-19T04:31:30.222Z,84.00
2017-12-19T04:33:57.802Z,83.80
2017-12-19T04:36:25.442Z,83.80
2017-12-19T04:38:53.017Z,83.60
2017-12-19T04:41:20.599Z,83.30
2017-12-19T04:43:48.226Z,83.30
2017-12-19T04:46:15.818Z,82.80
2017-12-19T04:48:43.389Z,83.90
2017-12-19T04:51:10.989Z,83.40
2017-12-19T04:53:39.354Z,83.70
2017-12-19T04:56:06.950Z,83.60
2017-12-19T04:58:35.290Z,82.40
2017-12-19T05:01:02.912Z,82.40
2017-12-19T05:03:30.494Z,82.90
2017-12-19T05:05:58.139Z,83.00
2017-12-19T05:08:26.490Z,82.60
2017-12-19T05:10:54.082Z,82.60
2017-12-19T05:13:21.647Z,82.60
2017-12-19T05:15:49.270Z,82.60
2017-12-19T05:18:17.613Z,84.10
2017-12-19T05:20:45.194Z,84.10
2017-12-19T05:23:13.586Z,84.30
2017-12-19T05:25:41.916Z,84.20
2017-12-19T05:28:09.507Z,84.20
2017-12-19T05:30:37.138Z,83.80
2017-12-19T05:33:04.761Z,83.60
2017-12-19T05:35:32.347Z,83.80
2017-12-19T05:37:59.902Z,83.50
2017-12-19T05:40:27.509Z,83.00
2017-12-19T05:42:55.083Z,83.30
2017-12-19T05:45:23.428Z,83.50
2017-12-19T05:47:51.077Z,83.50
2017-12-19T05:50:18.658Z,83.90
2017-12-19T05:52:46.258Z,84.00
2017-12-19T05:55:14.625Z,83.60
2017-12-19T05:57:42.998Z,83.80
2017-12-19T06:00:11.378Z,84.00
2017-12-19T06:02:39.727Z,84.20
2017-12-19T06:05:07.328Z,84.10
2017-12-19T06:07:34.920Z,84.10
2017-12-19T06:10:02.550Z,84.50
2017-12-19T06:12:30.168Z,84.20
2017-12-19T06:14:57.729Z,83.90
2017-12-19T06:17:25.295Z,83.80
2017-12-19T06:19:52.902Z,84.00
2017-12-19T06:22:21.243Z,84.10
2017-12-19T06:24:49.625Z,83.70
2017-12-19T06:27:17.213Z,83.40
2017-12-19T06:29:45.608Z,83.10
2017-12-19T06:32:13.958Z,83.00
2017-12-19T06:34:41.573Z,83.00
2017-12-19T06:37:09.156Z,83.20
2017-12-19T06:39:36.877Z,82.60
2017-12-19T06:42:04.493Z,82.90
2017-12-19T06:44:32.065Z,82.20
2017-12-19T06:46:59.670Z,82.40
2017-12-19T06:49:27.263Z,82.10
2017-12-19T06:51:54.892Z,82.60
2017-12-19T06:54:22.579Z,82.60
2017-12-19T06:56:50.144Z,82.90
2017-12-19T06:59:17.774Z,82.90
2017-12-19T07:01:45.338Z,83.10
2017-12-19T07:04:12.953Z,83.90
2017-12-19T07:06:40.621Z,83.20
2017-12-19T07:09:08.246Z,83.60
2017-12-19T07:11:35.806Z,83.80
2017-12-19T07:14:03.425Z,83.20
2017-12-19T07:16:31.814Z,82.80
2017-12-19T07:18:59.428Z,82.80
2017-12-19T07:21:27.034Z,83.10
2017-12-19T07:23:54.678Z,83.20
2017-12-19T07:26:23.021Z,82.60
2017-12-19T07:28:50.619Z,82.60
2017-12-19T07:31:18.430Z,83.00
2017-12-19T07:33:46.125Z,83.30
2017-12-19T07:36:13.694Z,83.60
2017-12-19T07:38:41.326Z,83.70
2017-12-19T07:41:08.909Z,84.30
2017-12-19T07:43:36.721Z,84.10
2017-12-19T07:46:05.142Z,84.30
2017-12-19T07:48:32.793Z,84.10
2017-12-19T07:51:00.364Z,84.40
2017-12-19T07:53:28.017Z,84.10
2017-12-19T07:55:55.604Z,83.80
2017-12-19T07:58:23.202Z,84.00
2017-12-19T08:00:50.786Z,84.40
2017-12-19T08:03:18.442Z,84.20
2017-12-19T08:05:46.847Z,84.10
2017-12-19T08:08:14.502Z,84.00
2017-12-19T08:10:42.058Z,83.70
2017-12-19T08:13:09.621Z,83.80
2017-12-19T08:15:37.617Z,83.80
2017-12-19T08:18:05.286Z,83.90
2017-12-19T08:20:32.912Z,83.60
2017-12-19T08:23:01.622Z,83.50
2017-12-19T08:25:29.250Z,83.40
2017-12-19T08:27:56.822Z,83.40
2017-12-19T08:30:24.431Z,83.50
2017-12-19T08:32:52.782Z,82.90
2017-12-19T08:35:20.379Z,82.90
2017-12-19T08:37:48.737Z,82.90
2017-12-19T08:40:16.304Z,82.80
2017-12-19T08:42:43.940Z,83.30
2017-12-19T08:45:11.564Z,83.80
2017-12-19T08:47:39.294Z,83.30
2017-12-19T08:50:06.900Z,83.20
2017-12-19T08:52:34.506Z,83.30
2017-12-19T08:55:02.120Z,83.50
2017-12-19T08:57:29.695Z,83.70
2017-12-19T08:59:58.106Z,83.50
2017-12-19T09:02:25.842Z,83.50
2017-12-19T09:04:53.455Z,83.60
2017-12-19T09:07:30.566Z,83.30
2017-12-19T09:09:58.277Z,83.30
2017-12-19T09:12:25.850Z,83.60
2017-12-19T09:14:53.471Z,84.20
2017-12-19T09:17:21.030Z,83.70
2017-12-19T09:19:48.635Z,83.30
2017-12-19T09:22:16.211Z,82.40
2017-12-19T09:24:44.958Z,82.50
2017-12-19T09:27:12.909Z,82.40
2017-12-19T09:29:40.513Z,83.20
2017-12-19T09:32:08.114Z,83.20
2017-12-19T09:34:36.591Z,82.50
2017-12-19T09:37:04.151Z,82.40
2017-12-19T09:39:38.430Z,83.10
2017-12-19T09:42:06.135Z,82.60
2017-12-19T09:44:33.809Z,81.90
2017-12-19T09:47:01.495Z,82.40
2017-12-19T09:49:29.112Z,82.10
2017-12-19T09:51:56.838Z,82.50
2017-12-19T09:54:24.445Z,82.50
2017-12-19T09:56:52.077Z,82.00
2017-12-19T09:59:19.658Z,81.70
2017-12-19T10:01:47.285Z,81.40
2017-12-19T10:04:14.850Z,81.70
2017-12-19T10:06:42.458Z,81.80
2017-12-19T10:09:10.085Z,81.70
2017-12-19T10:11:37.675Z,81.90
2017-12-19T10:14:05.313Z,81.50
2017-12-19T10:16:33.689Z,81.60
2017-12-19T10:19:02.064Z,81.70
2017-12-19T10:21:29.667Z,81.50
2017-12-19T10:23:57.356Z,81.20
2017-12-19T10:26:25.562Z,81.30
2017-12-19T10:28:53.592Z,81.20
2017-12-19T10:31:21.247Z,81.00
2017-12-19T10:33:48.855Z,80.80
2017-12-19T10:36:16.478Z,81.40
2017-12-19T10:38:44.042Z,81.20
2017-12-19T10:41:11.624Z,81.70
2017-12-19T10:43:39.242Z,81.20
2017-12-19T10:46:06.812Z,81.60
2017-12-19T10:48:34.387Z,81.90
2017-12-19T10:51:02.055Z,81.60
2017-12-19T10:53:29.621Z,82.20
2017-12-19T10:55:57.267Z,81.90
2017-12-19T10:58:24.942Z,82.20
2017-12-19T11:00:52.566Z,81.60
2017-12-19T11:03:20.187Z,81.20
2017-12-19T11:05:47.759Z,81.90
2017-12-19T11:08:16.134Z,81.20
2017-12-19T11:10:44.478Z,81.40
2017-12-19T11:13:12.041Z,81.40
2017-12-19T11:15:39.649Z,81.40
2017-12-19T11:18:08.487Z,80.70
2017-12-19T11:20:36.146Z,80.70
2017-12-19T11:23:04.754Z,81.20
2017-12-19T11:25:33.126Z,79.60
2017-12-19T11:28:00.735Z,79.60
2017-12-19T11:30:29.114Z,79.80
2017-12-19T11:32:56.827Z,79.60
2017-12-19T11:35:24.450Z,79.60
2017-12-19T11:37:52.043Z,79.70
2017-12-19T11:40:19.660Z,79.60
2017-12-19T11:42:47.257Z,80.40
2017-12-19T11:45:19.734Z,79.40
2017-12-19T11:47:48.089Z,79.20
2017-12-19T11:50:15.743Z,78.70
2017-12-19T11:52:44.213Z,78.80
2017-12-19T11:55:12.598Z,79.40
2017-12-19T11:57:40.178Z,79.40
2017-12-19T12:00:07.749Z,79.30
2017-12-19T12:02:35.372Z,79.20
2017-12-19T12:05:03.713Z,79.50
2017-12-19T12:07:31.309Z,79.40
2017-12-19T12:09:59.688Z,79.60
2017-12-19T12:12:28.072Z,79.50
2017-12-19T12:14:56.491Z,80.30
2017-12-19T12:17:24.887Z,80.30
2017-12-19T12:19:52.550Z,80.40
2017-12-19T12:22:20.110Z,79.80
2017-12-19T12:24:47.715Z,80.40
2017-12-19T12:27:16.111Z,80.30
2017-12-19T12:29:43.665Z,80.30
2017-12-19T12:32:12.034Z,80.10
2017-12-19T12:34:40.368Z,80.40
2017-12-19T12:37:08.011Z,80.40
2017-12-19T12:39:35.644Z,80.10
2017-12-19T12:42:04.033Z,79.30
2017-12-19T12:44:31.597Z,79.30
2017-12-19T12:46:59.163Z,79.20
2017-12-19T12:49:26.779Z,79.40
2017-12-19T12:51:54.347Z,79.40
2017-12-19T12:54:22.698Z,80.20
2017-12-19T12:56:50.297Z,80.20
2017-12-19T12:59:17.874Z,79.30
2017-12-19T13:01:45.498Z,80.00
2017-12-19T13:04:13.870Z,79.90
2017-12-19T13:06:41.461Z,79.90
2017-12-19T13:09:09.852Z,80.20
2017-12-19T13:11:37.434Z,80.20
2017-12-19T13:14:05.043Z,80.20
2017-12-19T13:16:33.674Z,79.90
2017-12-19T13:19:02.055Z,79.90
2017-12-19T13:21:29.633Z,79.70
2017-12-19T13:23:57.244Z,79.60
2017-12-19T13:26:25.598Z,79.00
2017-12-19T13:28:53.239Z,79.00
2017-12-19T13:31:20.887Z,79.20
2017-12-19T13:33:48.522Z,79.70
2017-12-19T13:36:16.891Z,80.40
2017-12-19T13:38:45.304Z,80.70
2017-12-19T13:41:13.626Z,80.70
2017-12-19T13:43:41.242Z,80.80
2017-12-19T13:46:08.823Z,81.00
2017-12-19T13:48:36.446Z,79.80
2017-12-19T13:51:04.837Z,80.20
2017-12-19T13:53:32.458Z,80.20
2017-12-19T13:56:00.049Z,80.80
2017-12-19T13:58:28.401Z,80.90
2017-12-19T14:00:55.997Z,80.80
2017-12-19T14:03:23.657Z,81.00
2017-12-19T14:05:51.276Z,80.80
2017-12-19T14:08:18.967Z,80.40
2017-12-19T14:10:47.401Z,80.70
2017-12-19T14:13:14.969Z,80.70
2017-12-19T14:15:43.487Z,80.50
2017-12-19T14:18:11.121Z,80.30
2017-12-19T14:20:38.692Z,80.20
2017-12-19T14:23:06.297Z,80.00
2017-12-19T14:25:33.943Z,80.40
2017-12-19T14:28:02.278Z,80.70
2017-12-19T14:30:29.929Z,80.60
2017-12-19T14:32:59.046Z,81.00
2017-12-19T14:35:26.701Z,80.50
2017-12-19T14:37:54.266Z,80.80
2017-12-19T14:40:21.913Z,80.90
2017-12-19T14:42:49.551Z,80.50
2017-12-19T14:45:17.117Z,80.10
2017-12-19T14:47:44.730Z,80.80
2017-12-19T14:50:12.334Z,81.00
2017-12-19T14:52:40.593Z,80.80
2017-12-19T14:55:08.254Z,80.50
2017-12-19T14:57:36.621Z,80.10
2017-12-19T15:00:04.971Z,80.10
2017-12-19T15:02:32.627Z,79.90
2017-12-19T15:05:00.202Z,79.90
2017-12-19T15:07:27.813Z,79.60
2017-12-19T15:09:55.381Z,80.40
2017-12-19T15:12:23.001Z,81.00
2017-12-19T15:14:50.631Z,80.80
2017-12-19T15:17:18.231Z,80.10
2017-12-19T15:19:46.585Z,80.90
2017-12-19T15:22:14.187Z,80.80
2017-12-19T15:24:41.780Z,80.50
2017-12-19T15:27:09.402Z,80.90
2017-12-19T15:29:36.993Z,81.00
2017-12-19T15:32:04.661Z,80.20
2017-12-19T15:34:32.972Z,80.00
2017-12-19T15:37:00.590Z,80.00
2017-12-19T15:39:28.167Z,80.20
2017-12-19T15:41:55.733Z,80.50
2017-12-19T15:44:23.330Z,80.70
2017-12-19T15:46:51.761Z,80.50
2017-12-19T15:49:19.356Z,80.50
2017-12-19T15:51:47.734Z,80.50
2017-12-19T15:54:15.310Z,80.40
2017-12-19T15:56:43.106Z,80.40
2017-12-19T15:59:10.693Z,80.50
2017-12-19T16:01:38.255Z,80.80
2017-12-19T16:04:05.903Z,80.00
2017-12-19T16:06:33.514Z,80.40
2017-12-19T16:09:01.090Z,80.20
2017-12-19T16:11:29.470Z,80.50
2017-12-19T16:13:57.870Z,80.40
2017-12-19T16:16:25.433Z,80.30
2017-12-19T16:18:53.016Z,80.50
2017-12-19T16:21:20.675Z,80.60
2017-12-19T16:23:49.078Z,80.50
2017-12-19T16:26:16.730Z,80.50
2017-12-19T16:28:44.914Z,80.60
2017-12-19T16:31:16.461Z,80.70
2017-12-19T16:33:44.082Z,81.10
2017-12-19T16:36:11.646Z,80.80
2017-12-19T16:38:39.286Z,80.90
2017-12-19T16:41:08.830Z,81.00
2017-12-19T16:43:37.262Z,80.90
2017-12-19T16:46:05.680Z,80.80
2017-12-19T16:48:33.285Z,80.70
2017-12-19T16:51:00.860Z,80.90
2017-12-19T16:53:28.439Z,81.40
2017-12-19T16:55:56.808Z,81.80
2017-12-19T16:58:24.404Z,81.70
2017-12-19T17:00:52.005Z,82.30
2017-12-19T17:03:19.561Z,82.20
2017-12-19T17:05:47.143Z,82.40
2017-12-19T17:08:14.767Z,82.60
2017-12-19T17:10:43.147Z,82.40
2017-12-19T17:13:13.554Z,82.30
2017-12-19T17:15:43.044Z,82.30
2017-12-19T17:18:13.437Z,82.50
2017-12-19T17:20:43.328Z,82.50
2017-12-19T17:23:13.087Z,82.30
2017-12-19T17:25:45.744Z,81.90
2017-12-19T17:28:17.242Z,81.80
2017-12-19T17:30:47.841Z,81.90
2017-12-19T17:33:18.393Z,81.50
2017-12-19T17:35:48.846Z,81.20
2017-12-19T17:38:18.329Z,81.20
2017-12-19T17:40:48.057Z,81.40
2017-12-19T17:43:18.491Z,80.90
2017-12-19T17:45:49.117Z,81.50
2017-12-19T17:48:18.519Z,81.50
2017-12-19T17:50:49.383Z,80.90
2017-12-19T17:53:19.059Z,81.20
2017-12-19T17:55:48.596Z,81.30
2017-12-19T17:58:18.385Z,81.50
2017-12-19T18:00:48.060Z,81.30
2017-12-19T18:03:17.950Z,81.40
2017-12-19T18:05:47.759Z,82.10
2017-12-19T18:08:17.426Z,82.00
2017-12-19T18:10:47.177Z,82.30
2017-12-19T18:13:16.810Z,82.50
2017-12-19T18:15:46.502Z,82.60
2017-12-19T18:18:19.982Z,82.70
2017-12-19T18:20:49.637Z,82.90
2017-12-19T18:23:20.315Z,83.50
2017-12-19T18:25:49.698Z,83.40
2017-12-19T18:28:26.543Z,83.20
2017-12-19T18:30:56.289Z,82.50
2017-12-19T18:33:26.936Z,82.80
2017-12-19T18:35:56.730Z,83.30
2017-12-19T18:38:26.105Z,83.20
2017-12-19T18:40:55.556Z,82.70
2017-12-19T18:43:24.892Z,82.70
2017-12-19T18:45:54.667Z,82.90
2017-12-19T18:48:23.623Z,82.90
2017-12-19T18:50:54.039Z,82.70
2017-12-19T18:53:23.444Z,82.70
2017-12-19T18:55:52.370Z,83.40
2017-12-19T18:58:21.684Z,83.70
2017-12-19T19:00:51.136Z,83.90
2017-12-19T19:03:20.275Z,84.30
2017-12-19T19:05:57.230Z,84.60
2017-12-19T19:08:27.675Z,84.60
2017-12-19T19:10:58.008Z,84.10
2017-12-19T19:13:28.148Z,84.00
2017-12-19T19:15:55.710Z,84.20
2017-12-19T19:18:23.361Z,84.50
2017-12-19T19:20:50.943Z,84.30
2017-12-19T19:23:18.567Z,84.80
2017-12-19T19:25:46.138Z,84.70
2017-12-19T19:28:13.819Z,84.70
2017-12-19T19:30:41.400Z,84.60
2017-12-19T19:33:08.973Z,84.90
2017-12-19T19:35:36.579Z,85.30
2017-12-19T19:38:04.175Z,85.20
2017-12-19T19:40:31.743Z,85.40
2017-12-19T19:42:59.359Z,85.40
2017-12-19T19:45:27.731Z,86.30
2017-12-19T19:47:56.065Z,86.40
2017-12-19T19:50:23.677Z,86.40
2017-12-19T19:52:52.027Z,86.50
2017-12-19T19:55:21.591Z,86.40
2017-12-19T19:57:49.154Z,86.60
2017-12-19T20:00:17.535Z,87.00
2017-12-19T20:02:45.093Z,86.90
2017-12-19T20:05:12.645Z,87.10
2017-12-19T20:07:40.245Z,86.80
2017-12-19T20:10:07.864Z,87.40
2017-12-19T20:12:35.429Z,87.70
2017-12-19T20:15:02.991Z,88.00
2017-12-19T20:17:30.595Z,88.10
2017-12-19T20:19:58.153Z,88.40
2017-12-19T20:22:25.758Z,88.40
2017-12-19T20:24:53.367Z,88.70
2017-12-19T20:27:20.967Z,88.90
2017-12-19T20:29:49.339Z,89.20
2017-12-19T20:32:17.668Z,89.10
2017-12-19T20:34:45.281Z,89.00
2017-12-19T20:37:12.924Z,89.60
2017-12-19T20:39:40.482Z,89.90
2017-12-19T20:42:08.137Z,89.70
2017-12-19T20:44:35.698Z,89.70
2017-12-19T20:47:03.305Z,89.70
2017-12-19T20:49:30.910Z,89.70
2017-12-19T20:51:58.481Z,89.70
2017-12-19T20:54:26.112Z,90.00
2017-12-19T20:56:53.682Z,89.90
2017-12-19T20:59:21.242Z,90.00
2017-12-19T21:01:50.446Z,89.70
2017-12-19T21:04:18.032Z,89.40
2017-12-19T21:06:45.637Z,89.50
2017-12-19T21:09:13.246Z,89.90
2017-12-19T21:11:40.853Z,89.80
2017-12-19T21:14:08.478Z,89.60
2017-12-19T21:16:36.041Z,89.60
2017-12-19T21:19:03.638Z,89.40
2017-12-19T21:21:31.221Z,89.70
2017-12-19T21:23:59.605Z,89.80
2017-12-19T21:26:27.232Z,89.80
2017-12-19T21:28:55.877Z,90.00
2017-12-19T21:31:23.484Z,90.10
2017-12-19T21:33:51.077Z,90.10
2017-12-19T21:36:18.681Z,90.10
2017-12-19T21:38:47.030Z,90.10
2017-12-19T21:41:14.588Z,90.10
2017-12-19T21:43:42.208Z,90.10
2017-12-19T21:46:09.774Z,90.10
2017-12-19T21:48:37.381Z,90.10
2017-12-19T21:51:04.986Z,90.10
2017-12-19T21:53:32.621Z,90.10
2017-12-19T21:56:00.191Z,90.00
2017-12-19T21:58:28.557Z,90.00
2017-12-19T22:00:57.277Z,90.00
2017-12-19T22:03:24.885Z,89.90
2017-12-19T22:05:52.470Z,89.70
2017-12-19T22:08:20.057Z,89.90
2017-12-19T22:10:47.671Z,90.10
2017-12-19T22:13:15.254Z,90.00
2017-12-19T22:15:42.825Z,90.00
2017-12-19T22:18:10.459Z,90.00
2017-12-19T22:20:38.024Z,90.00
2017-12-19T22:23:05.652Z,90.00
2017-12-19T22:25:33.220Z,90.00
2017-12-19T22:28:00.875Z,90.00
2017-12-19T22:30:28.490Z,90.10
2017-12-19T22:32:56.873Z,90.10
2017-12-19T22:35:25.215Z,90.30
2017-12-19T22:37:52.806Z,90.30
2017-12-19T22:40:21.137Z,90.30
2017-12-19T22:42:48.731Z,90.30
2017-12-19T22:45:16.338Z,90.30
2017-12-19T22:47:43.910Z,90.30
2017-12-19T22:50:11.498Z,90.20
2017-12-19T22:52:39.125Z,90.20
2017-12-19T22:55:06.728Z,90.30
2017-12-19T22:57:34.365Z,90.30
2017-12-19T23:00:01.958Z,90.20
2017-12-19T23:02:29.530Z,90.30
2017-12-19T23:04:57.139Z,90.10
2017-12-19T23:07:24.710Z,90.20
2017-12-19T23:09:52.306Z,90.10
2017-12-19T23:12:19.945Z,90.30
2017-12-19T23:14:47.515Z,90.20
2017-12-19T23:17:15.070Z,90.20
2017-12-19T23:19:42.710Z,90.10
2017-12-19T23:22:10.307Z,90.20
2017-12-19T23:24:37.866Z,90.20
2017-12-19T23:27:05.466Z,90.00
2017-12-19T23:29:33.031Z,90.10
2017-12-19T23:32:00.638Z,90.20
2017-12-19T23:34:28.203Z,90.00
2017-12-19T23:36:55.810Z,89.80
2017-12-19T23:39:23.414Z,90.00
2017-12-19T23:41:51.059Z,90.10
2017-12-19T23:44:18.642Z,90.00
2017-12-19T23:46:46.213Z,89.70
2017-12-19T23:49:13.821Z,90.00
2017-12-19T23:51:41.441Z,90.10
2017-12-19T23:54:09.082Z,90.10
2017-12-19T23:56:36.667Z,90.10
2017-12-19T23:59:04.225Z,90.10
